Time;durP1;ratioP1;P1;durP2;ratioP2;P2;SDS_P1;SDS_P2;PMS_P1;PMS_P2;Temp;Humidity;BMP_temperature;BMP_pressure;BME280_temperature;BME280_humidity;BME280_pressure;Samples;Min_cycle;Max_cycle;Signal;HPM_P1;HPM_P2
2024/01/01 00:00:44;;;;;;;;;;;;;;;9.32;69.16;98474.44;4436066;32;33278;-89
2024/01/01 00:03:15;;;;;;;;;;;;;;;9.38;69.27;98473.59;4429751;32;33862;-89
2024/01/01 00:05:43;;;;;;;;;;;;;;;9.36;69.50;98471.00;4436583;32;33995;-88
2024/01/01 00:08:10;;;;;;;;;;;;;;;9.32;69.41;98468.37;4436491;32;34041;-88
2024/01/01 00:10:38;;;;;;;;;;;;;;;9.20;70.11;98466.56;4436501;32;33358;-90
2024/01/01 00:13:05;;;;;;;;;;;;;;;9.47;69.45;98468.47;4436744;32;34162;-89
2024/01/01 00:15:32;;;;;;;;;;;;;;;9.25;70.46;98473.53;4437685;32;33381;-88
2024/01/01 00:17:59;;;;;;;;;;;;;;;9.43;69.80;98466.72;4445719;32;33931;-89
2024/01/01 00:20:27;;;;;;;;;;;;;;;9.34;70.25;98458.91;4436177;32;33269;-91
2024/01/01 00:22:54;;;;;;;;;;;;;;;9.31;70.46;98453.72;4435766;32;33718;-91
2024/01/01 00:25:22;;;;;;;;;;;;;;;9.39;70.07;98464.97;4436146;32;34112;-89
2024/01/01 00:27:49;;;;;;;;;;;;;;;9.61;69.22;98461.66;4436297;32;33893;-91
2024/01/01 00:30:16;;;;;;;;;;;;;;;9.44;69.92;98460.72;4435973;32;32966;-90
2024/01/01 00:32:43;;;;;;;;;;;;;;;9.51;69.73;98454.72;4436694;32;34598;-89
2024/01/01 00:35:11;;;;;;;;;;;;;;;9.82;68.89;98441.91;4436730;32;34345;-92
2024/01/01 00:37:38;;;;;;;;;;;;;;;9.74;68.49;98447.94;4436891;32;34160;-91
2024/01/01 00:40:06;;;;;;;;;;;;;;;9.49;68.90;98446.06;4436662;32;33403;-92
2024/01/01 00:42:33;;;;;;;;;;;;;;;9.49;68.91;98443.47;4436202;32;34075;-89
2024/01/01 00:45:01;;;;;;;;;;;;;;;9.74;68.22;98444.47;4434836;32;34304;-92
2024/01/01 00:47:29;;;;;;;;;;;;;;;9.94;67.42;98445.41;4436222;32;34862;-92
2024/01/01 00:49:58;;;;;;;;;;;;;;;9.85;67.61;98434.16;4434666;32;34010;-90
2024/01/01 00:52:25;;;;;;;;;;;;;;;9.66;68.22;98444.44;4435903;32;34956;-91
2024/01/01 00:54:52;;;;;;;;;;;;;;;9.82;67.88;98460.91;4436215;32;33981;-90
2024/01/01 00:57:20;;;;;;;;;;;;;;;10.03;66.87;98446.28;4435338;32;34513;-88
2024/01/01 00:59:47;;;;;;;;;;;;;;;10.02;66.84;98442.00;4447625;32;34059;-89
2024/01/01 01:02:15;;;;;;;;;;;;;;;9.91;67.29;98444.53;4436024;32;34983;-90
2024/01/01 01:04:45;;;;;;;;;;;;;;;10.13;66.49;98443.75;4435995;32;35103;-89
2024/01/01 01:07:31;;;;;;;;;;;;;;;9.82;67.42;98447.09;4436374;32;34337;-89
2024/01/01 01:09:59;;;;;;;;;;;;;;;10.20;66.51;98442.91;4436001;32;33393;-92
2024/01/01 01:12:26;;;;;;;;;;;;;;;10.06;67.17;98433.38;4435965;32;35097;-90
2024/01/01 01:14:54;;;;;;;;;;;;;;;9.71;69.02;98427.19;4435878;32;34325;-91
2024/01/01 01:17:21;;;;;;;;;;;;;;;10.09;67.87;98428.19;4435959;32;33576;-90
2024/01/01 01:19:48;;;;;;;;;;;;;;;10.09;68.23;98423.87;4436143;32;33692;-92
2024/01/01 01:22:16;;;;;;;;;;;;;;;10.16;68.04;98424.78;4436137;32;33401;-92
2024/01/01 01:24:43;;;;;;;;;;;;;;;10.00;68.79;98429.06;4435876;32;33594;-91
2024/01/01 01:27:10;;;;;;;;;;;;;;;10.05;68.70;98422.16;4435839;32;33278;-91
2024/01/01 01:29:37;;;;;;;;;;;;;;;9.92;69.07;98423.81;4420710;32;33760;-90
2024/01/01 01:32:06;;;;;;;;;;;;;;;10.22;68.02;98425.63;4420431;32;33863;-91
2024/01/01 01:34:34;;;;;;;;;;;;;;;9.99;69.23;98416.94;4420574;32;34055;-89
2024/01/01 01:37:01;;;;;;;;;;;;;;;10.01;69.26;98410.06;4427582;32;34963;-91
2024/01/01 01:39:28;;;;;;;;;;;;;;;9.87;70.29;98422.09;4436075;32;33276;-90
2024/01/01 01:41:56;;;;;;;;;;;;;;;10.06;69.44;98416.09;4435658;32;33587;-90
2024/01/01 01:44:23;;;;;;;;;;;;;;;10.20;68.93;98416.16;4434780;32;33935;-89
2024/01/01 01:46:50;;;;;;;;;;;;;;;9.98;69.72;98407.44;4420281;32;34254;-90
2024/01/01 01:49:20;;;;;;;;;;;;;;;10.06;69.43;98405.75;4420337;32;34056;-90
2024/01/01 01:51:48;;;;;;;;;;;;;;;10.05;69.61;98404.03;4422302;32;33650;-90
2024/01/01 01:54:16;;;;;;;;;;;;;;;9.97;69.79;98395.38;4435716;32;33615;-89
2024/01/01 01:56:43;;;;;;;;;;;;;;;10.03;69.92;98392.78;4435868;32;34006;-90
2024/01/01 01:59:10;;;;;;;;;;;;;;;9.77;70.78;98394.41;4435897;32;33332;-90
2024/01/01 02:01:38;;;;;;;;;;;;;;;10.10;69.47;98394.53;4421656;32;33044;-88
2024/01/01 02:04:05;;;;;;;;;;;;;;;10.29;68.88;98389.41;4421621;32;33269;-89
2024/01/01 02:06:33;;;;;;;;;;;;;;;10.16;69.20;98383.31;4434268;32;35072;-89
2024/01/01 02:09:01;;;;;;;;;;;;;;;10.01;69.54;98384.16;4436352;32;34131;-90
2024/01/01 02:11:28;;;;;;;;;;;;;;;9.99;69.33;98383.28;4437424;32;33981;-89
2024/01/01 02:14:09;;;;;;;;;;;;;;;9.80;70.08;98384.94;4437315;32;34195;-89
2024/01/01 02:16:37;;;;;;;;;;;;;;;9.90;69.74;98383.25;4437639;32;33730;-90
2024/01/01 02:19:06;;;;;;;;;;;;;;;9.98;69.55;98381.56;4437769;32;33439;-90
2024/01/01 02:21:33;;;;;;;;;;;;;;;9.79;70.55;98383.22;4435836;32;33628;-88
2024/01/01 02:24:00;;;;;;;;;;;;;;;9.95;69.98;98382.41;4437580;32;35166;-91
2024/01/01 02:26:28;;;;;;;;;;;;;;;9.92;70.40;98373.75;4423059;32;34907;-90
2024/01/01 02:28:55;;;;;;;;;;;;;;;10.03;69.95;98371.19;4436240;32;34250;-91
2024/01/01 02:31:23;;;;;;;;;;;;;;;10.04;69.99;98366.03;4437685;32;33726;-90
2024/01/01 02:33:50;;;;;;;;;;;;;;;10.00;70.43;98359.12;4437185;32;33914;-90
2024/01/01 02:36:17;;;;;;;;;;;;;;;9.87;70.63;98357.34;4436086;32;34862;-90
2024/01/01 02:38:45;;;;;;;;;;;;;;;9.80;70.94;98337.50;4423497;32;32951;-88
2024/01/01 02:41:12;;;;;;;;;;;;;;;9.63;71.66;98346.09;4437321;32;34013;-88
2024/01/01 02:43:39;;;;;;;;;;;;;;;9.61;71.66;98347.78;4437480;32;34039;-90
2024/01/01 02:46:06;;;;;;;;;;;;;;;9.93;70.53;98345.31;4437398;32;34279;-90
2024/01/01 02:48:34;;;;;;;;;;;;;;;9.90;70.74;98344.44;4435817;32;33646;-89
2024/01/01 02:51:02;;;;;;;;;;;;;;;9.99;70.39;98339.25;4437187;32;34045;-91
2024/01/01 02:53:29;;;;;;;;;;;;;;;9.96;70.61;98331.47;4435279;32;35155;-89
2024/01/01 02:55:57;;;;;;;;;;;;;;;9.60;71.71;98332.28;4437112;32;33660;-91
2024/01/01 02:58:24;;;;;;;;;;;;;;;9.98;70.63;98322.00;4436949;32;33242;-90
2024/01/01 03:00:51;;;;;;;;;;;;;;;10.03;70.37;98322.84;4437304;32;34704;-91
2024/01/01 03:03:19;;;;;;;;;;;;;;;9.88;71.02;98317.66;4437307;32;33703;-92
2024/01/01 03:05:46;;;;;;;;;;;;;;;9.82;71.27;98325.44;4436053;32;33894;-92
2024/01/01 03:08:13;;;;;;;;;;;;;;;9.71;71.78;98325.41;4437025;32;32868;-91
2024/01/01 03:10:41;;;;;;;;;;;;;;;9.87;71.33;98321.12;4437025;32;34628;-90
2024/01/01 03:13:08;;;;;;;;;;;;;;;9.97;71.00;98328.91;4437082;32;34908;-91
2024/01/01 03:15:35;;;;;;;;;;;;;;;10.00;70.86;98335.81;4437203;32;34715;-91
2024/01/01 03:18:05;;;;;;;;;;;;;;;9.92;70.89;98343.53;4437093;32;34052;-89
2024/01/01 03:20:33;;;;;;;;;;;;;;;9.04;73.47;98348.38;4436275;32;34685;-92
2024/01/01 03:23:01;;;;;;;;;;;;;;;9.15;73.12;98355.34;4436844;32;35018;-92
2024/01/01 03:25:28;;;;;;;;;;;;;;;9.71;71.13;98361.63;4436779;32;34270;-92
2024/01/01 03:27:55;;;;;;;;;;;;;;;9.75;70.71;98366.81;4422895;32;33315;-91
2024/01/01 03:30:24;;;;;;;;;;;;;;;9.75;70.69;98369.41;4435853;32;33307;-91
2024/01/01 03:32:51;;;;;;;;;;;;;;;9.78;70.53;98368.56;4436969;32;34913;-91
2024/01/01 03:35:19;;;;;;;;;;;;;;;9.64;70.72;98359.88;4436893;32;34293;-90
2024/01/01 03:37:46;;;;;;;;;;;;;;;9.73;70.49;98357.31;4436641;32;33628;-91
2024/01/01 03:40:14;;;;;;;;;;;;;;;9.56;71.18;98353.81;4436595;32;33800;-91
2024/01/01 03:42:41;;;;;;;;;;;;;;;9.01;73.48;98357.84;4436995;32;34051;-89
2024/01/01 03:45:08;;;;;;;;;;;;;;;9.37;72.34;98350.28;4437221;32;33941;-90
2024/01/01 03:47:36;;;;;;;;;;;;;;;8.67;74.79;98354.19;4436805;32;33109;-90
2024/01/01 03:50:05;;;;;;;;;;;;;;;9.29;72.48;98339.06;4437209;32;34229;-89
2024/01/01 03:52:33;;;;;;;;;;;;;;;8.55;75.34;98348.06;4436827;32;34071;-88
2024/01/01 03:55:00;;;;;;;;;;;;;;;8.61;75.56;98348.13;4435595;32;33821;-91
2024/01/01 03:57:27;;;;;;;;;;;;;;;8.30;76.15;98337.50;4435762;32;33815;-91
2024/01/01 03:59:55;;;;;;;;;;;;;;;8.32;76.05;98329.78;4436919;32;33685;-89
2024/01/01 04:02:22;;;;;;;;;;;;;;;8.15;76.16;98317.59;4436948;32;34090;-91
2024/01/01 04:04:50;;;;;;;;;;;;;;;8.42;75.09;98318.69;4437339;32;34188;-89
2024/01/01 04:07:17;;;;;;;;;;;;;;;8.67;74.03;98311.97;4436637;32;33288;-89
2024/01/01 04:09:45;;;;;;;;;;;;;;;8.87;72.57;98307.81;4436814;32;34043;-89
2024/01/01 04:12:13;;;;;;;;;;;;;;;8.22;74.95;98308.16;4435644;32;34101;-90
2024/01/01 04:14:40;;;;;;;;;;;;;;;7.65;77.45;98314.50;4436805;32;34961;-90
2024/01/01 04:17:07;;;;;;;;;;;;;;;7.76;76.10;98311.19;4436644;32;34152;-90
2024/01/01 04:19:35;;;;;;;;;;;;;;;7.61;76.03;98311.03;4436704;32;33763;-91
2024/01/01 04:22:02;;;;;;;;;;;;;;;7.86;74.91;98309.56;4436320;32;34936;-90
2024/01/01 04:24:29;;;;;;;;;;;;;;;7.81;75.10;98311.25;4436525;32;34090;-90
2024/01/01 04:26:57;;;;;;;;;;;;;;;7.67;75.85;98302.50;4435576;32;33418;-89
2024/01/01 04:29:24;;;;;;;;;;;;;;;7.28;77.42;98311.53;4436769;32;34465;-90
2024/01/01 04:31:51;;;;;;;;;;;;;;;7.51;76.24;98311.78;4436293;32;34849;-90
2024/01/01 04:34:19;;;;;;;;;;;;;;;7.76;74.33;98312.91;4436688;32;34083;-90
2024/01/01 04:36:46;;;;;;;;;;;;;;;7.48;74.80;98314.31;4436350;32;33450;-90
2024/01/01 04:39:13;;;;;;;;;;;;;;;7.60;73.82;98322.19;4436314;32;34195;-91
2024/01/01 04:41:41;;;;;;;;;;;;;;;7.16;74.56;98321.66;4436650;32;35261;-90
2024/01/01 04:44:08;;;;;;;;;;;;;;;6.85;75.38;98331.56;4436669;32;34562;-91
2024/01/01 04:46:35;;;;;;;;;;;;;;;6.96;75.58;98334.28;4436325;32;33103;-88
2024/01/01 04:49:03;;;;;;;;;;;;;;;6.78;76.15;98337.47;4436392;32;34770;-90
2024/01/01 04:51:30;;;;;;;;;;;;;;;6.89;75.77;98342.78;4436403;32;34421;-90
2024/01/01 04:53:57;;;;;;;;;;;;;;;6.65;76.29;98358.75;4435912;32;34807;-90
2024/01/01 04:56:24;;;;;;;;;;;;;;;6.52;76.99;98353.41;4436460;32;34007;-90
2024/01/01 04:58:52;;;;;;;;;;;;;;;6.72;76.26;98355.44;4436675;32;34168;-87
2024/01/01 05:01:19;;;;;;;;;;;;;;;6.39;76.72;98348.03;4436065;32;34513;-88
2024/01/01 05:03:47;;;;;;;;;;;;;;;6.54;76.04;98356.00;4436044;32;34521;-88
2024/01/01 05:06:14;;;;;;;;;;;;;;;6.50;75.91;98349.06;4436236;32;32715;-90
2024/01/01 05:08:41;;;;;;;;;;;;;;;6.53;75.69;98346.56;4436078;32;34151;-90
2024/01/01 05:11:09;;;;;;;;;;;;;;;6.73;75.06;98329.69;4436294;32;34123;-89
2024/01/01 05:13:37;;;;;;;;;;;;;;;6.58;75.62;98350.91;4435868;32;34103;-88
2024/01/01 05:16:08;;;;;;;;;;;;;;;7.03;74.28;98323.22;4436337;32;33840;-88
2024/01/01 05:18:35;;;;;;;;;;;;;;;6.77;74.69;98326.31;4436061;32;34010;-91
2024/01/01 05:21:03;;;;;;;;;;;;;;;6.36;76.12;98340.25;4436016;32;33744;-88
2024/01/01 05:23:30;;;;;;;;;;;;;;;5.98;77.58;98340.47;4435961;32;34020;-88
2024/01/01 05:25:58;;;;;;;;;;;;;;;6.40;76.26;98352.34;4436074;32;33289;-89
2024/01/01 05:28:25;;;;;;;;;;;;;;;6.00;77.74;98349.09;4436074;32;34114;-89
2024/01/01 05:30:52;;;;;;;;;;;;;;;6.75;75.12;98332.28;4435924;32;35119;-92
2024/01/01 05:33:20;;;;;;;;;;;;;;;6.52;76.42;98342.25;4421818;32;32782;-91
2024/01/01 05:35:47;;;;;;;;;;;;;;;6.28;76.52;98333.28;4435913;32;34139;-89
2024/01/01 05:38:14;;;;;;;;;;;;;;;6.16;77.83;98330.50;4435824;32;34154;-88
2024/01/01 05:40:44;;;;;;;;;;;;;;;6.11;78.46;98333.84;4435856;32;36726;-89
2024/01/01 05:43:12;;;;;;;;;;;;;;;5.91;78.93;98329.19;4436213;32;34059;-90
2024/01/01 05:45:39;;;;;;;;;;;;;;;6.30;77.42;98333.31;4435943;32;34040;-90
2024/01/01 05:48:06;;;;;;;;;;;;;;;6.39;76.44;98330.03;4437855;32;34113;-90
2024/01/01 05:50:47;;;;;;;;;;;;;;;6.29;76.94;98340.19;4437462;32;34205;-90
2024/01/01 05:53:15;;;;;;;;;;;;;;;6.04;77.40;98325.16;4437627;32;34848;-91
2024/01/01 05:55:42;;;;;;;;;;;;;;;6.45;76.78;98330.13;4437948;32;33105;-91
2024/01/01 05:58:09;;;;;;;;;;;;;;;6.49;76.72;98321.59;4437721;32;34016;-91
2024/01/01 06:00:38;;;;;;;;;;;;;;;6.19;76.68;98320.28;4437233;32;34124;-89
2024/01/01 06:03:06;;;;;;;;;;;;;;;6.70;74.93;98300.44;4436037;32;34131;-89
2024/01/01 06:05:34;;;;;;;;;;;;;;;6.45;76.65;98309.53;4437490;32;34434;-90
2024/01/01 06:08:02;;;;;;;;;;;;;;;6.50;76.31;98301.00;4436290;32;34628;-91
2024/01/01 06:10:31;;;;;;;;;;;;;;;6.38;76.69;98310.28;4436292;32;35059;-90
2024/01/01 06:12:58;;;;;;;;;;;;;;;6.41;76.82;98307.75;4437309;32;34289;-90
2024/01/01 06:15:26;;;;;;;;;;;;;;;6.48;76.75;98314.72;4437007;32;33199;-90
2024/01/01 06:17:53;;;;;;;;;;;;;;;6.76;75.35;98306.53;4437319;32;33944;-91
2024/01/01 06:20:21;;;;;;;;;;;;;;;6.25;77.20;98310.09;4435904;32;34024;-91
2024/01/01 06:22:48;;;;;;;;;;;;;;;6.81;75.32;98317.78;4437460;32;34661;-92
2024/01/01 06:25:16;;;;;;;;;;;;;;;6.27;77.27;98322.97;4437379;32;33097;-90
2024/01/01 06:27:43;;;;;;;;;;;;;;;6.00;78.44;98313.94;4437177;32;34165;-89
2024/01/01 06:30:10;;;;;;;;;;;;;;;6.27;76.65;98299.81;4437124;32;34343;-88
2024/01/01 06:32:38;;;;;;;;;;;;;;;6.02;78.15;98312.28;4437073;32;33936;-89
2024/01/01 06:35:05;;;;;;;;;;;;;;;6.07;78.32;98320.06;4435893;32;33457;-90
2024/01/01 06:37:32;;;;;;;;;;;;;;;6.53;76.99;98325.94;4437404;32;33538;-92
2024/01/01 06:40:00;;;;;;;;;;;;;;;6.22;77.72;98325.47;4437532;32;34385;-89
2024/01/01 06:42:28;;;;;;;;;;;;;;;6.56;76.21;98326.00;4437218;32;33822;-91
2024/01/01 06:45:05;;;;;;;;;;;;;;;6.44;76.63;98328.38;4436947;32;33630;-91
2024/01/01 06:47:32;;;;;;;;;;;;;;;6.17;77.39;98331.37;4437158;32;33549;-90
2024/01/01 06:50:00;;;;;;;;;;;;;;;6.19;77.39;98333.13;4437192;32;34028;-90
2024/01/01 06:52:27;;;;;;;;;;;;;;;6.29;76.90;98337.59;4437233;32;34141;-90
2024/01/01 06:54:55;;;;;;;;;;;;;;;6.74;75.42;98330.53;4437336;32;33274;-91
2024/01/01 06:57:22;;;;;;;;;;;;;;;6.51;74.86;98320.75;4436158;32;33512;-89
2024/01/01 06:59:49;;;;;;;;;;;;;;;6.32;76.45;98332.47;4437069;32;34914;-90
2024/01/01 07:02:17;;;;;;;;;;;;;;;6.01;76.85;98340.53;4437200;32;34520;-90
2024/01/01 07:04:44;;;;;;;;;;;;;;;6.33;76.83;98349.69;4437460;32;33558;-89
2024/01/01 07:07:12;;;;;;;;;;;;;;;5.94;77.56;98352.41;4437277;32;33682;-90
2024/01/01 07:09:39;;;;;;;;;;;;;;;5.53;79.19;98346.47;4437215;32;34259;-90
2024/01/01 07:12:27;;;;;;;;;;;;;;;5.90;78.71;98367.75;4437180;32;34416;-90
2024/01/01 07:14:55;;;;;;;;;;;;;;;5.93;78.41;98370.41;4436041;32;33059;-92
2024/01/01 07:17:22;;;;;;;;;;;;;;;5.56;78.83;98378.25;4436577;32;34626;-90
2024/01/01 07:19:49;;;;;;;;;;;;;;;5.69;79.18;98393.94;4437076;32;34047;-90
2024/01/01 07:22:17;;;;;;;;;;;;;;;5.65;79.60;98392.16;4437114;32;34576;-91
2024/01/01 07:24:44;;;;;;;;;;;;;;;5.85;78.01;98411.41;4437541;32;32817;-91
2024/01/01 07:27:12;;;;;;;;;;;;;;;5.48;80.40;98405.50;4435808;32;34720;-91
2024/01/01 07:29:40;;;;;;;;;;;;;;;5.84;78.53;98418.25;4437080;32;34125;-91
2024/01/01 07:32:07;;;;;;;;;;;;;;;5.71;78.28;98412.81;4436451;32;33863;-90
2024/01/01 07:34:35;;;;;;;;;;;;;;;5.70;78.79;98422.25;4448800;32;33374;-90
2024/01/01 07:37:04;;;;;;;;;;;;;;;5.70;79.42;98431.66;4435694;32;34563;-90
2024/01/01 07:39:32;;;;;;;;;;;;;;;4.94;82.09;98431.75;4435450;32;34310;-91
2024/01/01 07:41:59;;;;;;;;;;;;;;;5.43;79.97;98431.97;4436907;32;33945;-91
2024/01/01 07:44:27;;;;;;;;;;;;;;;5.55;79.78;98437.38;4435640;32;33483;-92
2024/01/01 07:46:58;;;;;;;;;;;;;;;5.51;80.53;98440.72;4436505;32;34244;-92
2024/01/01 07:49:25;;;;;;;;;;;;;;;5.18;81.86;98451.13;4436813;32;34374;-91
2024/01/01 07:51:53;;;;;;;;;;;;;;;5.07;82.14;98451.72;4422689;32;32651;-89
2024/01/01 07:54:20;;;;;;;;;;;;;;;4.91;83.42;98462.50;4435659;32;32855;-90
2024/01/01 07:56:49;;;;;;;;;;;;;;;5.06;83.01;98459.41;4436880;32;34993;-91
2024/01/01 07:59:16;;;;;;;;;;;;;;;5.66;80.75;98461.59;4436618;32;34414;-89
2024/01/01 08:01:44;;;;;;;;;;;;;;;5.32;82.03;98462.56;4436870;32;34685;-89
2024/01/01 08:04:12;;;;;;;;;;;;;;;5.20;82.37;98464.88;4436617;32;33540;-91
2024/01/01 08:06:39;;;;;;;;;;;;;;;5.16;82.26;98463.94;4434469;32;34074;-90
2024/01/01 08:09:06;;;;;;;;;;;;;;;5.54;81.28;98463.91;4436593;32;34124;-89
2024/01/01 08:11:33;;;;;;;;;;;;;;;5.64;80.29;98463.25;4436640;32;33751;-91
2024/01/01 08:14:00;;;;;;;;;;;;;;;5.64;80.66;98473.53;4436411;32;34152;-88
2024/01/01 08:16:34;;;;;;;;;;;;;;;5.34;82.46;98466.03;4436852;32;34508;-88
2024/01/01 08:19:01;;;;;;;;;;;;;;;5.37;81.67;98476.37;4436804;32;34420;-88
2024/01/01 08:21:28;;;;;;;;;;;;;;;5.49;81.09;98475.78;4435289;32;35373;-91
2024/01/01 08:23:56;;;;;;;;;;;;;;;5.80;79.50;98467.91;4436891;32;33609;-91
2024/01/01 08:26:23;;;;;;;;;;;;;;;5.55;79.22;98473.34;4422579;32;33424;-91
2024/01/01 08:28:53;;;;;;;;;;;;;;;5.54;80.19;98469.06;4436494;32;34353;-90
2024/01/01 08:31:21;;;;;;;;;;;;;;;5.78;80.09;98464.41;4436165;32;34430;-88
2024/01/01 08:33:49;;;;;;;;;;;;;;;6.18;77.81;98454.94;4434891;32;33349;-91
2024/01/01 08:36:19;;;;;;;;;;;;;;;5.86;78.75;98465.44;4436714;32;33788;-91
2024/01/01 08:38:47;;;;;;;;;;;;;;;5.60;79.39;98467.47;4435652;32;34245;-86
2024/01/01 08:41:14;;;;;;;;;;;;;;;5.71;80.94;98462.56;4435183;32;34187;-88
2024/01/01 08:43:56;;;;;;;;;;;;;;;5.38;83.47;98470.44;4436973;32;34255;-86
2024/01/01 08:46:25;;;;;;;;;;;;;;;5.59;80.28;98454.59;4436382;32;34608;-89
2024/01/01 08:48:52;;;;;;;;;;;;;;;5.47;81.76;98454.34;4436258;32;35198;-87
2024/01/01 08:51:19;;;;;;;;;;;;;;;5.44;82.89;98464.53;4435308;32;35019;-88
2024/01/01 08:53:47;;;;;;;;;;;;;;;5.76;80.22;98460.97;4436422;32;33267;-88
2024/01/01 08:56:14;;;;;;;;;;;;;;;5.56;80.13;98459.66;4436271;32;33978;-88
2024/01/01 08:58:42;;;;;;;;;;;;;;;5.41;80.83;98472.19;4436262;32;34087;-88
2024/01/01 09:01:09;;;;;;;;;;;;;;;5.47;80.66;98487.75;4436398;32;34926;-92
2024/01/01 09:03:37;;;;;;;;;;;;;;;5.62;80.38;98472.66;4436340;32;34109;-87
2024/01/01 09:06:04;;;;;;;;;;;;;;;5.98;78.82;98461.41;4434507;32;33461;-89
2024/01/01 09:08:32;;;;;;;;;;;;;;;5.78;79.57;98478.97;4428761;32;33787;-88
2024/01/01 09:10:59;;;;;;;;;;;;;;;6.30;77.47;98475.75;4421817;32;34400;-86
2024/01/01 09:13:27;;;;;;;;;;;;;;;6.29;77.59;98474.03;4435535;32;33018;-88
2024/01/01 09:15:54;;;;;;;;;;;;;;;5.89;79.03;98463.78;4436209;32;33872;-93
2024/01/01 09:18:22;;;;;;;;;;;;;;;6.06;79.28;98455.59;4435128;32;35061;-94
2024/01/01 09:20:49;;;;;;;;;;;;;;;6.15;78.68;98449.75;4435667;32;35169;-89
2024/01/01 09:23:17;;;;;;;;;;;;;;;6.18;79.76;98456.66;4436165;32;33407;-91
2024/01/01 09:25:44;;;;;;;;;;;;;;;6.15;80.88;98466.88;4435057;32;34010;-90
2024/01/01 09:28:12;;;;;;;;;;;;;;;5.93;80.46;98452.75;4447669;32;33897;-89
2024/01/01 09:30:39;;;;;;;;;;;;;;;5.75;82.22;98464.34;4435246;32;34317;-89
2024/01/01 09:33:06;;;;;;;;;;;;;;;5.97;80.73;98467.41;4435027;32;33730;-88
2024/01/01 09:35:34;;;;;;;;;;;;;;;6.16;80.87;98466.91;4436367;32;34612;-87
2024/01/01 09:38:03;;;;;;;;;;;;;;;5.94;81.23;98457.03;4435032;32;34390;-88
2024/01/01 09:40:31;;;;;;;;;;;;;;;5.91;81.72;98480.97;4434663;32;33812;-89
2024/01/01 09:42:58;;;;;;;;;;;;;;;6.36;79.65;98474.13;4434664;32;34069;-89
2024/01/01 09:45:26;;;;;;;;;;;;;;;6.39;79.38;98469.03;4435206;32;35918;-88
2024/01/01 09:47:53;;;;;;;;;;;;;;;6.38;78.43;98475.03;4435490;32;33834;-92
2024/01/01 09:50:20;;;;;;;;;;;;;;;6.37;78.24;98468.16;4434423;32;34027;-91
2024/01/01 09:52:54;;;;;;;;;;;;;;;5.65;81.40;98470.16;4435563;32;31393;-89
2024/01/01 09:55:22;;;;;;;;;;;;;;;5.92;80.59;98479.28;4434230;32;34821;-89
2024/01/01 09:57:49;;;;;;;;;;;;;;;6.05;80.73;98479.56;4421417;32;33699;-89
2024/01/01 10:00:20;;;;;;;;;;;;;;;6.09;80.51;98485.63;4421332;32;33676;-91
2024/01/01 10:02:48;;;;;;;;;;;;;;;6.12;79.74;98485.69;4421246;32;32417;-91
2024/01/01 10:05:15;;;;;;;;;;;;;;;6.32;79.11;98493.78;4435177;32;34811;-89
2024/01/01 10:07:50;;;;;;;;;;;;;;;6.51;78.46;98497.56;4434125;32;33957;-91
2024/01/01 10:10:27;;;;;;;;;;;;;;;6.43;78.20;98504.31;4435222;32;34366;-90
2024/01/01 10:12:57;;;;;;;;;;;;;;;6.28;79.06;98508.31;4433910;32;33643;-91
2024/01/01 10:15:24;;;;;;;;;;;;;;;7.01;76.04;98501.03;4434182;32;34669;-92
2024/01/01 10:17:52;;;;;;;;;;;;;;;6.51;77.51;98497.56;4435321;32;34281;-88
2024/01/01 10:20:19;;;;;;;;;;;;;;;6.86;76.82;98494.75;4433256;32;34173;-91
2024/01/01 10:22:47;;;;;;;;;;;;;;;6.65;77.65;98490.09;4435119;32;33497;-91
2024/01/01 10:25:14;;;;;;;;;;;;;;;7.21;75.60;98493.59;4433795;32;33781;-91
2024/01/01 10:27:45;;;;;;;;;;;;;;;6.99;76.33;98484.66;4433309;32;34356;-90
2024/01/01 10:30:12;;;;;;;;;;;;;;;7.03;75.93;98494.19;4441413;32;34210;-88
2024/01/01 10:32:40;;;;;;;;;;;;;;;7.08;75.52;98491.66;4452896;32;34479;-91
2024/01/01 10:35:09;;;;;;;;;;;;;;;7.22;75.65;98487.59;4428165;32;34793;-88
2024/01/01 10:37:37;;;;;;;;;;;;;;;7.15;75.18;98488.34;4423512;32;34255;-91
2024/01/01 10:40:05;;;;;;;;;;;;;;;7.25;74.56;98479.06;4444511;32;33738;-95
2024/01/01 10:42:36;;;;;;;;;;;;;;;7.23;74.52;98466.12;4436506;32;33195;-91
2024/01/01 10:45:04;;;;;;;;;;;;;;;7.07;74.50;98480.50;4443869;32;34874;-89
2024/01/01 10:47:31;;;;;;;;;;;;;;;7.06;74.60;98473.62;4448310;32;34825;-89
2024/01/01 10:50:05;;;;;;;;;;;;;;;7.05;74.87;98471.91;4435689;32;33652;-89
2024/01/01 10:52:44;;;;;;;;;;;;;;;7.27;74.05;98462.78;4451708;32;33246;-91
2024/01/01 10:55:12;;;;;;;;;;;;;;;7.36;73.66;98466.31;4433150;32;34012;-90
2024/01/01 10:57:58;;;;;;;;;;;;;;;7.11;74.60;98465.94;4438872;32;34055;-88
2024/01/01 11:00:25;;;;;;;;;;;;;;;6.92;74.88;98475.09;4441383;32;34416;-89
2024/01/01 11:02:53;;;;;;;;;;;;;;;6.90;74.55;98475.94;4436883;32;33888;-88
2024/01/01 11:05:21;;;;;;;;;;;;;;;7.10;74.20;98476.25;4434221;32;32758;-90
2024/01/01 11:07:52;;;;;;;;;;;;;;;7.20;74.30;98481.56;4434399;32;33561;-91
2024/01/01 11:10:38;;;;;;;;;;;;;;;7.30;74.35;98479.97;4422576;32;33089;-93
2024/01/01 11:13:11;;;;;;;;;;;;;;;7.25;74.40;98474.75;4436160;32;33170;-90
2024/01/01 11:15:40;;;;;;;;;;;;;;;7.63;72.56;98471.84;4435449;32;34767;-88
2024/01/01 11:18:30;;;;;;;;;;;;;;;7.31;73.35;98473.97;4435871;32;33854;-92
2024/01/01 11:21:01;;;;;;;;;;;;;;;7.21;73.77;98483.31;4430432;32;34053;-89
2024/01/01 11:23:46;;;;;;;;;;;;;;;7.50;73.09;98488.88;4436185;32;33823;-92
2024/01/01 11:26:23;;;;;;;;;;;;;;;7.03;73.89;98488.16;4428668;32;34088;-87
2024/01/01 11:28:51;;;;;;;;;;;;;;;7.16;74.03;98495.25;4422470;32;33404;-91
2024/01/01 11:31:18;;;;;;;;;;;;;;;6.88;75.05;98477.63;4435100;32;34840;-90
2024/01/01 11:33:46;;;;;;;;;;;;;;;7.64;72.45;98483.91;4422000;32;32601;-88
2024/01/01 11:36:13;;;;;;;;;;;;;;;7.66;72.36;98492.53;4435100;32;33645;-90
2024/01/01 11:38:40;;;;;;;;;;;;;;;7.60;72.61;98495.03;4422523;32;34239;-88
2024/01/01 11:41:08;;;;;;;;;;;;;;;7.54;72.86;98498.41;4434815;32;34765;-91
2024/01/01 11:43:52;;;;;;;;;;;;;;;7.54;72.83;98498.41;4441771;32;34018;-89
2024/01/01 11:46:26;;;;;;;;;;;;;;;7.37;72.95;98497.28;4435057;32;34228;-88
2024/01/01 11:48:54;;;;;;;;;;;;;;;7.44;73.27;98500.81;4433915;32;34041;-88
2024/01/01 11:51:23;;;;;;;;;;;;;;;7.35;73.34;98501.56;4433786;32;33825;-89
2024/01/01 11:54:03;;;;;;;;;;;;;;;7.24;73.82;98498.81;4436842;32;33984;-92
2024/01/01 11:56:31;;;;;;;;;;;;;;;7.67;72.68;98486.53;4436186;32;34085;-88
2024/01/01 11:58:58;;;;;;;;;;;;;;;7.42;73.36;98498.19;4436708;32;34053;-89
2024/01/01 12:01:26;;;;;;;;;;;;;;;7.70;72.38;98488.28;4435614;32;34030;-89
2024/01/01 12:03:54;;;;;;;;;;;;;;;7.74;71.99;98495.22;4435372;32;34089;-92
2024/01/01 12:06:21;;;;;;;;;;;;;;;7.57;71.87;98498.41;4431538;32;34081;-93
2024/01/01 12:08:49;;;;;;;;;;;;;;;7.65;71.57;98487.34;4434776;32;34087;-92
2024/01/01 12:11:17;;;;;;;;;;;;;;;7.76;70.92;98483.19;4434866;32;34806;-91
2024/01/01 12:14:03;;;;;;;;;;;;;;;7.70;71.35;98496.03;4436156;32;33102;-92
2024/01/01 12:16:32;;;;;;;;;;;;;;;8.01;70.89;98489.53;4436878;32;33299;-91
2024/01/01 12:19:05;;;;;;;;;;;;;;;7.76;71.44;98483.19;4411672;32;35282;-93
2024/01/01 12:21:40;;;;;;;;;;;;;;;7.68;72.07;98485.66;4422947;32;34275;-90
2024/01/01 12:24:07;;;;;;;;;;;;;;;7.89;70.93;98472.19;4418425;32;33999;-90
2024/01/01 12:26:35;;;;;;;;;;;;;;;7.79;70.97;98473.78;4435416;32;33878;-92
2024/01/01 12:29:12;;;;;;;;;;;;;;;7.66;71.63;98461.59;4420640;32;33441;-90
2024/01/01 12:31:41;;;;;;;;;;;;;;;7.82;70.47;98466.94;4434952;32;33960;-89
2024/01/01 12:34:12;;;;;;;;;;;;;;;8.40;68.55;98475.38;4421991;32;32925;-90
2024/01/01 12:36:41;;;;;;;;;;;;;;;7.97;69.51;98473.16;4421630;32;33058;-87
2024/01/01 12:39:08;;;;;;;;;;;;;;;8.45;67.77;98468.53;4434350;32;34261;-89
2024/01/01 12:41:35;;;;;;;;;;;;;;;8.04;67.96;98471.50;4432544;32;34251;-89
2024/01/01 12:44:03;;;;;;;;;;;;;;;7.72;69.02;98495.19;4443202;32;33930;-87
2024/01/01 12:46:30;;;;;;;;;;;;;;;7.66;69.29;98484.81;4420546;32;33081;-87
2024/01/01 12:48:58;;;;;;;;;;;;;;;7.93;69.17;98491.16;4422070;32;33137;-90
2024/01/01 12:51:26;;;;;;;;;;;;;;;7.82;69.52;98495.31;4436437;32;33780;-88
2024/01/01 12:53:56;;;;;;;;;;;;;;;7.96;69.28;98504.97;4435079;32;33416;-88
2024/01/01 12:56:24;;;;;;;;;;;;;;;7.71;69.77;98505.50;4435262;32;34208;-90
2024/01/01 12:58:52;;;;;;;;;;;;;;;7.76;70.57;98504.69;4436095;32;35167;-92
2024/01/01 13:01:19;;;;;;;;;;;;;;;7.96;69.32;98511.84;4434094;32;34792;-91